Salalah, Oman

5:43 PM GST on July 30, 2014 (GMT +0400)
Salalah (OOSA) Elev 66 ft | 17.04 °N, 54.09 °E | Change Station

Current weather conditions updated 53 minutes ago

Mostly Cloudy
Mostly Cloudy
77 °F
Feels Like 77 °F
N
6
Wind Variable Wind from ESE
Gusts mph

Tomorrow is forecast to be Much Warmer than today.

Today
High -- | Low -- °F
--% Chance of Precip.
Yesterday
High -- | Low -- °F
Precip. -- in
6:02 AM 6:57 PM
Waxing Crescent, 11% visible
Pressure 29.59 in
Visibility -9999.0 miles
Clouds
Dew Point 75 °F
Humidity 94%
Rainfall 0.00 in
Snow Depth Not available.
UV Not available.
Pollen Not available.
Air Quality Not available.
Flu Activity Not available.
METAR OOSA 301250Z AUTO 11005KT 3100 25/24 Q1002

More Conditions Fewer Conditions

Pressure 29.59 in
Visibility -9999.0 miles
Clouds
Dew Point 75 °F
Humidity 94%
Rainfall 0.00 in
Snow Depth Not available.
UV Not available.
Pollen Not available.
Air Quality Not available.
Flu Activity Not available.
METAR OOSA 301250Z AUTO 11005KT 3100 25/24 Q1002

More Conditions Fewer Conditions

10-Day Weather Forecast

Almanac

Astronomy

Jul. 30, 2014 Rise Set
Actual Time 6:02 AM GST 6:57 PM GST
Civil Twilight 5:39 AM GST 7:20 PM GST
Nautical Twilight 5:12 AM GST 7:47 PM GST
Astronomical Twilight 4:44 AM GST 8:15 PM GST
Moon 8:38 AM GST 9:06 PM GST
Length of Visible Light 13h 40m
Length of Day
12h 54m
Tomorrow will be 0m 41s shorter.
Waxing Crescent, 11% of the Moon is Illuminated
Today
Waxing Crescent
Aug 3
First Quarter
Aug 10
Full
Aug 17
Last Quarter
Aug 25
New

Yesterday's Extremes

Country Highs Country Lows

Community

WunderPhotos

Upload Photos

1,739,080 photos uploaded!

Nearby

Snow Depth

Not available.

Earthquake Activity

City Distance Mag. Time & Date
No recent earthquake activity has been reported nearby.
Minimum magnitude displayed is 2.5.

Coastal Water Temperatures

Place Temperature
No Stations Reporting

Nearby Weather Stations

There are no personal weather stations in this area.